Time;durP1;ratioP1;P1;durP2;ratioP2;P2;SDS_P1;SDS_P2;PMS_P1;PMS_P2;Temp;Humidity;BMP_temperature;BMP_pressure;BME280_temperature;BME280_humidity;BME280_pressure;Samples;Min_cycle;Max_cycle;Signal;HPM_P1;HPM_P2
2021/01/20 00:01:03;;;;;;;14.07;8.25;;;;;;;5.65;83.38;100250.63;5219953;28;20089;-68
2021/01/20 00:03:34;;;;;;;9.60;7.82;;;;;;;5.64;82.68;100233.34;5220791;28;20021;-68
2021/01/20 00:06:06;;;;;;;11.93;7.55;;;;;;;5.61;82.71;100237.03;5220563;28;20046;-68
2021/01/20 00:08:38;;;;;;;13.38;7.63;;;;;;;5.60;83.90;100234.53;5222822;28;20372;-68
2021/01/20 00:11:09;;;;;;;12.82;7.32;;;;;;;5.58;82.89;100226.84;5224074;28;20022;-68
2021/01/20 00:13:40;;;;;;;11.23;7.18;;;;;;;5.58;82.88;100226.84;5222096;28;20479;-67
2021/01/20 00:16:11;;;;;;;14.25;6.95;;;;;;;5.54;83.68;100220.22;5224000;28;20034;-68
2021/01/20 00:18:43;;;;;;;8.73;6.22;;;;;;;5.51;82.82;100210.06;5225172;28;20482;-68
2021/01/20 00:21:14;;;;;;;12.35;6.68;;;;;;;5.47;82.76;100208.63;5223883;28;20479;-68
2021/01/20 00:23:46;;;;;;;10.05;6.95;;;;;;;5.45;83.08;100205.28;5224708;28;20052;-67
2021/01/20 00:26:17;;;;;;;11.90;7.18;;;;;;;5.46;82.77;100229.53;5220360;28;20406;-67
2021/01/20 00:28:48;;;;;;;11.02;6.40;;;;;;;5.45;83.81;100217.47;5221624;28;20033;-68
2021/01/20 00:31:20;;;;;;;11.98;6.93;;;;;;;5.43;83.42;100209.78;5224280;28;20034;-68
2021/01/20 00:33:51;;;;;;;11.75;6.43;;;;;;;5.42;83.24;100212.50;5224308;28;20036;-68
2021/01/20 00:36:23;;;;;;;13.30;6.97;;;;;;;5.41;82.93;100209.06;5222568;28;20487;-68
2021/01/20 00:38:54;;;;;;;10.63;6.72;;;;;;;5.39;83.06;100205.78;5224200;28;20128;-67
2021/01/20 00:41:25;;;;;;;9.43;6.40;;;;;;;5.37;83.56;100200.66;5223427;28;20414;-67
2021/01/20 00:43:56;;;;;;;9.80;6.43;;;;;;;5.38;82.49;100191.13;5223044;28;20029;-68
2021/01/20 00:46:28;;;;;;;11.27;6.80;;;;;;;5.36;82.94;100180.84;5226431;28;20095;-67
2021/01/20 00:48:59;;;;;;;12.48;6.85;;;;;;;5.37;84.45;100185.09;5225213;28;20037;-67
2021/01/20 00:51:30;;;;;;;8.90;5.82;;;;;;;5.41;82.68;100184.88;5221519;28;20057;-68
2021/01/20 00:54:01;;;;;;;13.23;7.65;;;;;;;5.42;83.38;100187.38;5225261;28;20043;-68
2021/01/20 00:56:33;;;;;;;12.15;7.07;;;;;;;5.43;83.66;100188.19;5223778;28;20486;-68
2021/01/20 00:59:04;;;;;;;8.32;6.20;;;;;;;5.44;82.50;100185.47;5221840;28;20036;-68
2021/01/20 01:01:35;;;;;;;10.68;5.95;;;;;;;5.45;83.75;100181.91;5222239;28;20065;-68
2021/01/20 01:04:06;;;;;;;11.23;6.80;;;;;;;5.45;83.24;100181.09;5223962;28;20119;-68
2021/01/20 01:06:38;;;;;;;11.38;6.47;;;;;;;5.47;82.71;100179.22;5223253;28;20050;-68
2021/01/20 01:09:10;;;;;;;9.60;6.15;;;;;;;5.46;82.44;100183.59;5223546;28;20034;-68
2021/01/20 01:11:41;;;;;;;11.00;6.72;;;;;;;5.41;82.47;100157.13;5224041;28;20036;-67
2021/01/20 01:14:12;;;;;;;11.93;6.28;;;;;;;5.47;83.10;100168.84;5222344;28;20057;-68
2021/01/20 01:16:43;;;;;;;11.00;6.63;;;;;;;5.51;81.91;100180.66;5225175;28;20022;-68
2021/01/20 01:19:15;;;;;;;10.07;6.05;;;;;;;5.50;82.34;100166.84;5222426;28;20030;-68
2021/01/20 01:21:46;;;;;;;9.18;6.43;;;;;;;5.54;81.66;100173.47;5223983;28;20498;-68
2021/01/20 01:24:17;;;;;;;8.95;5.47;;;;;;;5.55;82.84;100164.72;5223707;28;20040;-68
2021/01/20 01:26:49;;;;;;;9.50;6.95;;;;;;;5.57;82.32;100175.84;5222630;28;20033;-67
2021/01/20 01:29:20;;;;;;;15.13;6.70;;;;;;;5.58;82.42;100166.25;5223685;28;20040;-68
2021/01/20 01:31:51;;;;;;;13.75;6.85;;;;;;;5.60;83.30;100172.97;5222451;28;20030;-68
2021/01/20 01:34:23;;;;;;;12.13;6.10;;;;;;;5.64;82.44;100160.59;5220451;28;20060;-68
2021/01/20 01:36:54;;;;;;;12.15;5.95;;;;;;;5.68;82.44;100168.97;5222948;28;20026;-68
2021/01/20 01:39:25;;;;;;;9.43;5.78;;;;;;;5.69;82.46;100165.47;5224312;28;20034;-67
2021/01/20 01:41:56;;;;;;;11.57;6.63;;;;;;;5.70;82.74;100167.94;5223656;28;20052;-68
2021/01/20 01:44:28;;;;;;;8.85;6.10;;;;;;;5.69;82.78;100158.50;5222585;28;20553;-68
2021/01/20 01:47:00;;;;;;;10.02;6.43;;;;;;;5.74;81.32;100156.38;5224132;28;20042;-68
2021/01/20 01:49:31;;;;;;;10.75;6.65;;;;;;;5.74;82.80;100155.53;5222046;28;20033;-68
2021/01/20 01:52:03;;;;;;;10.63;6.80;;;;;;;5.76;82.65;100158.88;5223208;28;20079;-68
2021/01/20 01:54:34;;;;;;;12.75;6.28;;;;;;;5.76;82.49;100148.47;5223323;28;20566;-68
2021/01/20 01:57:06;;;;;;;11.27;7.05;;;;;;;5.78;83.01;100160.38;5219071;28;20049;-68
2021/01/20 01:59:37;;;;;;;8.70;6.22;;;;;;;5.82;81.93;100151.41;5226011;28;20429;-68
2021/01/20 02:02:08;;;;;;;10.18;6.47;;;;;;;5.82;82.05;100147.97;5223181;28;20022;-68
2021/01/20 02:04:40;;;;;;;13.18;7.13;;;;;;;5.80;83.25;100147.28;5219240;28;20032;-69
2021/01/20 02:07:12;;;;;;;11.57;6.18;;;;;;;5.81;84.23;100154.97;5225919;28;20132;-67
2021/01/20 02:09:43;;;;;;;10.20;6.38;;;;;;;5.79;85.13;100151.63;5239559;28;20029;-68
2021/01/20 02:12:42;;;;;;;11.93;5.97;;;;;;;5.82;83.52;100146.22;5225618;28;20044;-68
2021/01/20 02:15:39;;;;;;;12.45;6.88;;;;;;;5.82;84.76;100141.00;5227275;28;20033;-69
2021/01/20 02:18:14;;;;;;;8.98;5.85;;;;;;;5.80;85.75;100140.31;5226259;28;20486;-68
2021/01/20 02:21:04;;;;;;;8.63;5.60;;;;;;;5.83;85.00;100144.44;5223460;28;20433;-68
2021/01/20 02:23:41;;;;;;;9.10;6.57;;;;;;;5.82;83.82;100138.41;5225341;28;20025;-68
2021/01/20 02:26:22;;;;;;;10.63;5.90;;;;;;;5.81;84.57;100136.75;5226209;28;20115;-68
2021/01/20 02:28:53;;;;;;;10.27;5.80;;;;;;;5.81;84.90;100130.75;5225060;28;20100;-68
2021/01/20 02:31:28;;;;;;;12.00;6.33;;;;;;;5.83;84.42;100124.50;5226984;28;20033;-68
2021/01/20 02:34:05;;;;;;;9.77;5.68;;;;;;;5.86;84.00;100116.44;5225570;28;20059;-67
2021/01/20 02:36:39;;;;;;;9.10;6.30;;;;;;;5.82;84.92;100120.22;5226390;28;20024;-68
2021/01/20 02:39:11;;;;;;;10.48;5.10;;;;;;;5.87;82.86;100104.25;5225992;28;20030;-68
2021/01/20 02:41:45;;;;;;;9.32;5.80;;;;;;;5.89;83.43;100112.78;5223574;28;20479;-68
2021/01/20 02:44:16;;;;;;;8.57;5.40;;;;;;;5.95;82.29;100101.13;5224626;28;20029;-68
2021/01/20 02:46:48;;;;;;;9.27;5.80;;;;;;;5.98;82.08;100109.50;5226457;28;20498;-68
2021/01/20 02:49:19;;;;;;;8.93;5.80;;;;;;;6.02;81.84;100116.13;5225549;28;20548;-68
2021/01/20 02:52:07;;;;;;;7.30;4.88;;;;;;;6.05;81.50;100102.88;5225214;28;20076;-68
2021/01/20 02:54:40;;;;;;;10.80;5.72;;;;;;;6.07;81.25;100095.78;5225940;28;20033;-68
2021/01/20 02:57:13;;;;;;;9.00;5.18;;;;;;;6.08;82.01;100097.44;5225759;28;20140;-68
2021/01/20 02:59:46;;;;;;;8.00;5.40;;;;;;;6.10;82.45;100097.34;5225698;28;20034;-68
2021/01/20 03:02:19;;;;;;;8.75;5.00;;;;;;;6.12;82.05;100090.22;5220100;28;20033;-69
2021/01/20 03:04:52;;;;;;;6.93;5.00;;;;;;;6.11;82.67;100087.75;5219179;28;20044;-68
2021/01/20 03:07:26;;;;;;;8.40;5.28;;;;;;;6.07;84.10;100077.59;5223801;28;20436;-67
2021/01/20 03:09:58;;;;;;;10.95;5.30;;;;;;;6.00;86.46;100078.19;5223722;28;20033;-68
2021/01/20 03:12:30;;;;;;;9.25;5.32;;;;;;;5.98;86.30;100072.28;5218457;28;20467;-68
2021/01/20 03:15:05;;;;;;;7.53;5.00;;;;;;;5.95;88.10;100069.94;5224407;28;20026;-68
2021/01/20 03:17:37;;;;;;;10.10;5.72;;;;;;;5.94;87.95;100065.66;5223697;28;20047;-68
2021/01/20 03:20:09;;;;;;;8.13;5.20;;;;;;;5.88;88.22;100058.31;5223567;28;20029;-68
2021/01/20 03:22:40;;;;;;;8.88;5.20;;;;;;;5.85;88.44;100048.97;5226953;28;20033;-68
2021/01/20 03:25:12;;;;;;;7.80;5.00;;;;;;;5.83;87.14;100048.25;5225358;28;20051;-68
2021/01/20 03:27:43;;;;;;;9.00;4.95;;;;;;;5.85;86.76;100049.81;5225350;28;20022;-68
2021/01/20 03:30:15;;;;;;;7.07;4.88;;;;;;;5.78;87.86;100040.81;5225895;28;20025;-68
2021/01/20 03:32:47;;;;;;;9.23;5.45;;;;;;;5.82;87.82;100044.00;5226524;28;20444;-68
2021/01/20 03:35:18;;;;;;;8.13;4.82;;;;;;;5.81;86.59;100032.78;5223517;28;20117;-68
2021/01/20 03:37:49;;;;;;;7.55;4.78;;;;;;;5.79;88.39;100034.66;5223530;28;20030;-67
2021/01/20 03:40:20;;;;;;;10.25;5.45;;;;;;;5.82;86.74;100037.03;5226351;28;20025;-68
2021/01/20 03:42:52;;;;;;;7.82;4.57;;;;;;;5.85;85.63;100036.81;5222973;28;20510;-68
2021/01/20 03:45:23;;;;;;;8.15;4.95;;;;;;;5.86;86.07;100025.44;5225492;28;20483;-68
2021/01/20 03:47:54;;;;;;;8.30;5.05;;;;;;;5.89;86.24;100029.59;5226435;28;20029;-68
2021/01/20 03:50:26;;;;;;;7.43;5.07;;;;;;;5.90;86.57;100025.22;5223880;28;20485;-68
2021/01/20 03:52:57;;;;;;;6.68;4.63;;;;;;;5.90;87.07;100017.41;5221868;28;20500;-68
2021/01/20 03:55:28;;;;;;;8.82;5.28;;;;;;;5.90;86.99;100005.25;5225301;28;20677;-68
2021/01/20 03:57:59;;;;;;;7.53;4.90;;;;;;;5.94;85.33;100006.69;5225534;28;20486;-67
2021/01/20 04:00:31;;;;;;;6.85;4.55;;;;;;;5.94;86.40;100006.69;5224196;28;20040;-68
2021/01/20 04:03:02;;;;;;;6.53;4.50;;;;;;;5.98;86.29;100007.28;5225335;28;20041;-68
2021/01/20 04:05:34;;;;;;;8.88;4.70;;;;;;;5.98;85.62;100005.50;5222925;28;20493;-68
2021/01/20 04:08:05;;;;;;;8.52;4.93;;;;;;;6.00;86.11;99998.41;5223368;28;20398;-68
2021/01/20 04:10:36;;;;;;;8.55;5.10;;;;;;;6.05;86.17;99993.66;5227450;28;20052;-68
2021/01/20 04:13:07;;;;;;;8.60;4.97;;;;;;;6.05;85.55;99998.88;5222749;28;20030;-68
2021/01/20 04:15:39;;;;;;;8.10;4.40;;;;;;;6.09;85.20;100002.88;5222525;28;20029;-67
2021/01/20 04:18:10;;;;;;;6.70;4.38;;;;;;;6.09;85.90;99983.84;5224804;28;20391;-68
2021/01/20 04:20:43;;;;;;;6.32;4.18;;;;;;;6.15;85.02;99995.53;5219367;28;20490;-68
2021/01/20 04:23:15;;;;;;;6.90;4.50;;;;;;;6.15;84.67;99987.75;5223884;28;20030;-69
2021/01/20 04:25:46;;;;;;;7.53;4.60;;;;;;;6.17;84.37;99984.06;5223874;28;20025;-68
2021/01/20 04:28:17;;;;;;;6.45;4.13;;;;;;;6.21;84.08;99989.84;5224509;28;20026;-68
2021/01/20 04:30:48;;;;;;;7.47;4.68;;;;;;;6.21;84.15;99985.50;5225901;28;20041;-68
2021/01/20 04:33:20;;;;;;;6.85;4.45;;;;;;;6.24;82.93;99987.00;5222589;28;20119;-68
2021/01/20 04:35:52;;;;;;;7.03;4.43;;;;;;;6.22;83.90;99987.13;5223379;28;20033;-67
2021/01/20 04:38:23;;;;;;;7.45;5.00;;;;;;;6.26;82.02;99988.53;5224059;28;20026;-68
2021/01/20 04:40:58;;;;;;;6.78;4.80;;;;;;;6.27;82.77;99986.75;5224557;28;20052;-68
2021/01/20 04:43:29;;;;;;;7.30;4.85;;;;;;;6.27;82.04;99981.56;5221917;28;20172;-68
2021/01/20 04:46:01;;;;;;;6.55;4.43;;;;;;;6.27;82.28;99976.34;5225725;28;20057;-67
2021/01/20 04:48:34;;;;;;;10.38;5.03;;;;;;;6.30;81.52;99981.31;5224667;28;20029;-68
2021/01/20 04:51:07;;;;;;;8.77;4.80;;;;;;;6.37;80.64;99966.03;5222724;28;20026;-68
2021/01/20 04:53:40;;;;;;;6.72;4.57;;;;;;;6.39;81.07;99961.53;5223477;28;20557;-68
2021/01/20 04:56:13;;;;;;;7.05;4.20;;;;;;;6.43;79.36;99961.13;5222590;28;20036;-67
2021/01/20 04:58:44;;;;;;;;;;;;;;;6.48;79.06;99958.19;5224679;28;20475;-67
2021/01/20 05:01:17;;;;;;;6.53;4.15;;;;;;;6.42;80.23;99966.47;5219943;28;19916;-68
2021/01/20 05:03:49;;;;;;;6.47;4.45;;;;;;;6.45;80.48;99961.84;5216642;28;20121;-67
2021/01/20 05:06:20;;;;;;;5.72;3.78;;;;;;;6.41;79.72;99950.03;5220024;28;20049;-68
2021/01/20 05:08:51;;;;;;;5.80;3.90;;;;;;;6.45;78.90;99941.03;5235310;28;20029;-68
2021/01/20 05:11:42;;;;;;;8.95;4.63;;;;;;;6.47;79.87;99941.72;5221528;28;20037;-68
2021/01/20 05:14:16;;;;;;;6.60;3.78;;;;;;;6.45;79.06;99935.84;5221376;28;20426;-68
2021/01/20 05:16:49;;;;;;;6.45;3.72;;;;;;;6.50;78.10;99933.66;5229784;28;20475;-68
2021/01/20 05:19:35;;;;;;;5.53;3.60;;;;;;;6.50;78.16;99944.06;5223510;28;20050;-68
2021/01/20 05:22:08;;;;;;;7.38;3.60;;;;;;;6.47;79.18;99938.31;5222192;28;20465;-69
2021/01/20 05:24:40;;;;;;;5.50;3.25;;;;;;;6.52;78.45;99934.38;5220330;28;20061;-68
2021/01/20 05:27:12;;;;;;;6.25;3.88;;;;;;;6.53;78.03;99925.63;5222327;28;20032;-68
2021/01/20 05:29:56;;;;;;;5.93;3.33;;;;;;;6.56;79.08;99934.97;5223115;28;20554;-68
2021/01/20 05:32:28;;;;;;;4.78;3.30;;;;;;;6.58;77.06;99931.25;5222706;28;20057;-68
2021/01/20 05:35:09;;;;;;;6.55;3.47;;;;;;;6.54;78.66;99937.66;5222136;28;20080;-68
2021/01/20 05:37:44;;;;;;;4.07;2.92;;;;;;;6.54;77.77;99922.06;5220097;28;20025;-68
2021/01/20 05:40:18;;;;;;;4.40;3.05;;;;;;;6.58;77.08;99923.44;5224677;28;20080;-67
2021/01/20 05:42:53;;;;;;;4.93;3.38;;;;;;;6.55;77.71;99926.34;5222258;28;20409;-68
2021/01/20 05:45:24;;;;;;;4.68;3.08;;;;;;;6.58;77.19;99913.03;5225604;28;20033;-68
2021/01/20 05:48:09;;;;;;;5.72;3.42;;;;;;;6.58;77.05;99920.84;5229634;28;20487;-68
2021/01/20 05:50:55;;;;;;;4.82;2.90;;;;;;;6.54;77.16;99910.81;5226783;28;20045;-67
2021/01/20 05:53:26;;;;;;;4.25;2.80;;;;;;;6.64;76.30;99924.72;5227866;28;20021;-68
2021/01/20 05:56:04;;;;;;;5.88;3.38;;;;;;;6.64;76.98;99921.31;5229467;28;20048;-67
2021/01/20 05:58:36;;;;;;;4.85;2.78;;;;;;;6.64;76.44;99927.34;5225624;28;20022;-67
2021/01/20 06:01:11;;;;;;;5.27;2.93;;;;;;;6.67;76.36;99924.47;5226216;28;20068;-67
2021/01/20 06:03:43;;;;;;;4.63;2.80;;;;;;;6.61;78.25;99917.19;5227245;28;20276;-68
2021/01/20 06:06:18;;;;;;;7.65;2.88;;;;;;;6.63;76.77;99919.63;5226590;28;20050;-67
2021/01/20 06:08:49;;;;;;;6.10;2.80;;;;;;;6.64;76.71;99914.31;5227271;28;20037;-67
2021/01/20 06:11:21;;;;;;;3.55;2.60;;;;;;;6.62;76.90;99908.41;5228319;28;20475;-68
2021/01/20 06:13:53;;;;;;;4.85;3.15;;;;;;;6.65;76.92;99902.13;5227428;28;20049;-67
2021/01/20 06:16:29;;;;;;;5.70;2.90;;;;;;;6.69;77.23;99906.13;5225422;28;20034;-68
2021/01/20 06:19:07;;;;;;;4.55;2.80;;;;;;;6.69;77.22;99895.72;5226265;28;20426;-68
2021/01/20 06:21:40;;;;;;;4.68;2.63;;;;;;;6.70;77.31;99899.97;5225495;28;20029;-68
2021/01/20 06:24:32;;;;;;;4.25;2.40;;;;;;;6.72;78.19;99893.69;5226662;28;20075;-68
2021/01/20 06:27:16;;;;;;;4.55;2.42;;;;;;;6.73;77.79;99895.31;5226157;28;20034;-68
2021/01/20 06:30:01;;;;;;;3.83;2.40;;;;;;;6.73;77.59;99897.09;5226612;28;20613;-68
2021/01/20 06:32:33;;;;;;;3.30;2.38;;;;;;;6.69;78.93;99877.50;5227029;28;20029;-67
2021/01/20 06:35:05;;;;;;;3.95;2.35;;;;;;;6.73;78.01;99877.09;5222143;28;20435;-67
2021/01/20 06:37:42;;;;;;;5.07;2.90;;;;;;;6.71;78.61;99880.81;5224527;28;20101;-68
2021/01/20 06:40:22;;;;;;;4.97;2.38;;;;;;;6.72;78.31;99882.44;5224675;28;20029;-68
2021/01/20 06:42:54;;;;;;;4.90;2.30;;;;;;;6.75;78.68;99882.19;5212939;28;20034;-67
2021/01/20 06:45:26;;;;;;;3.78;2.50;;;;;;;6.75;79.08;99883.00;5225097;28;20033;-68
2021/01/20 06:48:00;;;;;;;4.53;2.53;;;;;;;6.78;79.58;99892.31;5224563;28;20037;-67
2021/01/20 06:50:53;;;;;;;7.15;2.53;;;;;;;6.76;79.80;99889.88;5225012;28;20034;-68
2021/01/20 06:53:24;;;;;;;5.45;2.70;;;;;;;6.74;80.44;99891.78;5226138;28;20493;-68
2021/01/20 06:55:55;;;;;;;4.10;2.90;;;;;;;6.74;81.35;99890.94;5227243;28;20063;-67
2021/01/20 06:58:26;;;;;;;4.78;2.70;;;;;;;6.73;81.56;99897.09;5225149;28;20040;-68
2021/01/20 07:01:00;;;;;;;4.63;2.72;;;;;;;6.73;81.15;99895.31;5223763;28;20029;-68
2021/01/20 07:03:41;;;;;;;5.70;2.75;;;;;;;6.72;82.04;99892.84;5225225;28;20033;-68
2021/01/20 07:06:34;;;;;;;5.18;2.83;;;;;;;6.70;82.53;99894.75;5224030;28;20463;-67
2021/01/20 07:09:14;;;;;;;5.00;3.10;;;;;;;6.64;83.67;99885.69;5224923;28;20030;-68
2021/01/20 07:11:59;;;;;;;4.47;2.95;;;;;;;6.65;83.89;99894.31;5224035;28;20426;-68
2021/01/20 07:14:31;;;;;;;4.72;2.67;;;;;;;6.61;83.46;99895.53;5221518;28;20048;-67
2021/01/20 07:17:05;;;;;;;4.82;2.90;;;;;;;6.57;84.81;99882.78;5222087;28;20021;-68
2021/01/20 07:19:38;;;;;;;3.97;2.50;;;;;;;6.55;84.75;99878.63;5222563;28;20409;-69
2021/01/20 07:22:11;;;;;;;4.30;2.90;;;;;;;6.55;85.04;99883.84;5226053;28;20057;-68
2021/01/20 07:24:43;;;;;;;4.50;2.72;;;;;;;6.50;85.64;99873.81;5222359;28;20033;-68
2021/01/20 07:27:14;;;;;;;3.70;2.58;;;;;;;6.48;86.02;99867.13;5224055;28;20560;-68
2021/01/20 07:29:47;;;;;;;4.45;2.65;;;;;;;6.48;86.35;99883.56;5224167;28;20030;-68
2021/01/20 07:32:29;;;;;;;5.93;3.15;;;;;;;6.46;86.52;99880.25;5222712;28;20415;-68
2021/01/20 07:35:00;;;;;;;4.18;2.92;;;;;;;6.45;86.10;99868.19;5224862;28;20033;-68
2021/01/20 07:37:32;;;;;;;6.00;3.28;;;;;;;6.46;87.05;99866.41;5226400;28;20079;-67
2021/01/20 07:40:08;;;;;;;4.45;2.85;;;;;;;6.48;86.14;99875.75;5222515;28;20482;-68
2021/01/20 07:42:40;;;;;;;4.45;3.13;;;;;;;6.47;87.27;99868.88;5222023;28;20037;-68
2021/01/20 07:45:12;;;;;;;4.75;2.72;;;;;;;6.47;87.19;99868.88;5214008;28;20039;-68
2021/01/20 07:47:44;;;;;;;4.60;3.03;;;;;;;6.47;87.64;99862.84;5220004;28;20034;-68
2021/01/20 07:50:19;;;;;;;4.65;2.50;;;;;;;6.48;87.37;99861.91;5223016;28;20506;-68
2021/01/20 07:52:51;;;;;;;5.70;2.35;;;;;;;6.49;86.66;99866.97;5223655;28;20037;-68
2021/01/20 07:55:22;;;;;;;4.70;2.88;;;;;;;6.52;86.79;99860.72;5223105;28;20022;-68
2021/01/20 07:57:57;;;;;;;5.85;2.75;;;;;;;6.52;86.73;99853.72;5224349;28;20030;-68
2021/01/20 08:00:28;;;;;;;4.10;2.20;;;;;;;6.54;86.70;99854.41;5219678;28;20471;-68
2021/01/20 08:03:01;;;;;;;5.22;2.90;;;;;;;6.56;85.82;99854.28;5219625;28;20052;-68
2021/01/20 08:05:34;;;;;;;4.35;2.50;;;;;;;6.57;85.87;99846.34;5223414;28;20825;-68
2021/01/20 08:08:13;;;;;;;3.67;2.30;;;;;;;6.59;86.28;99854.00;5221112;28;20025;-68
2021/01/20 08:10:45;;;;;;;3.55;2.30;;;;;;;6.63;85.56;99846.75;5219817;28;20029;-68
2021/01/20 08:13:17;;;;;;;4.07;2.60;;;;;;;6.65;86.50;99852.69;5216033;28;20398;-69
2021/01/20 08:15:49;;;;;;;3.95;2.40;;;;;;;6.69;85.14;99852.28;5219234;28;20454;-68
2021/01/20 08:18:22;;;;;;;4.32;2.47;;;;;;;6.70;85.10;99847.91;5218937;28;20040;-68
2021/01/20 08:20:53;;;;;;;3.70;2.10;;;;;;;6.71;85.10;99858.19;5221245;28;20030;-68
2021/01/20 08:23:47;;;;;;;3.80;2.38;;;;;;;6.71;84.27;99850.38;5222063;28;20022;-68
2021/01/20 08:26:26;;;;;;;3.83;2.33;;;;;;;6.71;83.52;99849.56;5221508;28;20083;-68
2021/01/20 08:29:15;;;;;;;4.22;2.15;;;;;;;6.70;83.55;99853.09;5218881;28;20049;-67
2021/01/20 08:32:04;;;;;;;4.38;2.42;;;;;;;6.69;83.11;99854.88;5220697;28;20430;-68
2021/01/20 08:34:37;;;;;;;3.88;2.35;;;;;;;6.66;82.26;99851.72;5220376;28;20475;-68
2021/01/20 08:37:20;;;;;;;3.25;2.20;;;;;;;6.73;80.58;99850.25;5222146;28;20025;-68
2021/01/20 08:39:57;;;;;;;5.15;2.20;;;;;;;6.77;81.11;99851.63;5219168;28;20171;-68
2021/01/20 08:42:39;;;;;;;4.32;2.10;;;;;;;6.86;79.16;99850.03;5218292;28;20040;-68
2021/01/20 08:45:16;;;;;;;2.70;2.00;;;;;;;6.91;79.28;99843.50;5221108;28;20113;-68
2021/01/20 08:47:55;;;;;;;3.20;1.95;;;;;;;6.99;77.79;99858.44;5219157;28;20079;-68
2021/01/20 08:50:26;;;;;;;5.38;2.20;;;;;;;7.00;77.73;99837.47;5218546;28;20030;-68
2021/01/20 08:53:09;;;;;;;3.23;2.00;;;;;;;7.05;76.91;99845.72;5222089;28;20022;-69
2021/01/20 08:55:51;;;;;;;2.90;1.63;;;;;;;7.05;77.27;99843.13;5216396;28;20031;-68
2021/01/20 08:58:30;;;;;;;4.05;2.15;;;;;;;7.11;75.64;99828.75;5222314;28;20041;-67
2021/01/20 09:01:22;;;;;;;3.83;1.90;;;;;;;7.19;75.77;99830.69;5216856;28;20036;-67
2021/01/20 09:03:58;;;;;;;3.13;1.95;;;;;;;7.22;75.32;99833.84;5219759;28;20060;-68
2021/01/20 09:06:29;;;;;;;3.42;1.77;;;;;;;7.22;74.71;99825.22;5216562;28;20185;-68
2021/01/20 09:09:01;;;;;;;2.95;1.80;;;;;;;7.30;74.13;99828.78;5218181;28;20030;-68
2021/01/20 09:11:32;;;;;;;4.03;1.90;;;;;;;7.36;73.99;99827.44;5219194;28;20442;-68
2021/01/20 09:14:03;;;;;;;2.58;1.63;;;;;;;7.39;73.78;99827.19;5217950;28;20467;-68
2021/01/20 09:16:34;;;;;;;4.63;2.08;;;;;;;7.43;74.24;99825.94;5210922;28;20036;-68
2021/01/20 09:19:06;;;;;;;3.58;2.10;;;;;;;7.43;74.27;99825.94;5222119;28;20381;-68
2021/01/20 09:21:37;;;;;;;4.05;1.90;;;;;;;7.42;73.27;99813.84;5220915;28;20030;-68
2021/01/20 09:24:09;;;;;;;3.30;2.03;;;;;;;7.41;73.07;99812.22;5222156;28;20026;-68
2021/01/20 09:26:40;;;;;;;2.95;1.80;;;;;;;7.36;74.08;99813.59;5224299;28;20164;-68
2021/01/20 09:29:11;;;;;;;3.05;1.80;;;;;;;7.37;72.59;99810.03;5223779;28;20022;-68
2021/01/20 09:31:43;;;;;;;4.50;1.95;;;;;;;7.39;71.71;99814.16;5212629;28;20696;-68
2021/01/20 09:34:14;;;;;;;3.88;1.92;;;;;;;7.41;71.39;99824.44;5221552;28;20028;-68
2021/01/20 09:36:45;;;;;;;2.33;1.45;;;;;;;7.45;71.07;99834.44;5223107;28;20364;-68
2021/01/20 09:39:16;;;;;;;3.80;1.83;;;;;;;7.46;71.97;99833.50;5223490;28;20490;-68
2021/01/20 09:41:48;;;;;;;4.45;2.20;;;;;;;7.47;72.21;99814.28;5222110;28;20033;-68
2021/01/20 09:44:19;;;;;;;3.28;1.65;;;;;;;7.53;71.02;99805.09;5220224;28;20032;-68
2021/01/20 09:46:51;;;;;;;3.35;1.80;;;;;;;7.59;69.61;99811.56;5220267;28;20033;-68
2021/01/20 09:49:22;;;;;;;4.68;2.15;;;;;;;7.62;68.44;99806.91;5224068;28;20052;-68
2021/01/20 09:51:53;;;;;;;3.90;1.70;;;;;;;7.72;67.23;99807.72;5224385;28;20033;-68
2021/01/20 09:54:25;;;;;;;3.88;1.90;;;;;;;7.75;67.48;99811.84;5224585;28;20037;-68
2021/01/20 09:56:57;;;;;;;3.75;1.70;;;;;;;7.74;67.28;99813.63;5224384;28;20030;-67
2021/01/20 09:59:28;;;;;;;3.20;1.73;;;;;;;7.82;66.28;99809.50;5225150;28;20037;-68
2021/01/20 10:01:59;;;;;;;3.63;2.13;;;;;;;7.82;66.14;99827.75;5237239;28;20033;-68
2021/01/20 10:04:31;;;;;;;4.40;1.70;;;;;;;7.83;65.58;99822.41;5223752;28;20033;-68
2021/01/20 10:07:02;;;;;;;4.38;1.85;;;;;;;7.85;64.87;99820.50;5220217;28;20038;-68
2021/01/20 10:09:34;;;;;;;3.40;1.65;;;;;;;7.89;64.70;99813.22;5222352;28;20471;-68
2021/01/20 10:12:06;;;;;;;3.38;1.80;;;;;;;7.95;62.89;99800.41;5223062;28;20521;-68
2021/01/20 10:14:38;;;;;;;4.03;2.25;;;;;;;7.96;63.53;99807.31;5224955;28;20032;-68
2021/01/20 10:17:09;;;;;;;3.28;1.70;;;;;;;8.03;64.70;99807.56;5221088;28;20018;-68
2021/01/20 10:19:41;;;;;;;4.32;2.25;;;;;;;8.14;63.00;99798.75;5224509;28;20030;-68
2021/01/20 10:22:12;;;;;;;3.17;2.15;;;;;;;8.18;61.89;99789.69;5223155;28;20029;-68
2021/01/20 10:24:43;;;;;;;3.55;2.13;;;;;;;8.21;61.41;99792.00;5220655;28;20030;-68
2021/01/20 10:27:15;;;;;;;3.33;2.00;;;;;;;8.22;61.34;99788.44;5219369;28;20019;-68
2021/01/20 10:29:46;;;;;;;4.80;2.00;;;;;;;8.18;62.38;99774.88;5223063;28;20033;-68
2021/01/20 10:32:17;;;;;;;3.00;1.90;;;;;;;8.15;63.94;99784.78;5223616;28;20503;-68
2021/01/20 10:34:49;;;;;;;4.53;1.77;;;;;;;8.16;62.82;99766.34;5224369;28;20032;-67
2021/01/20 10:37:20;;;;;;;4.68;1.70;;;;;;;8.20;61.84;99777.34;5224671;28;20112;-68
2021/01/20 10:39:51;;;;;;;2.80;1.70;;;;;;;8.20;63.18;99777.34;5217032;28;20025;-68
2021/01/20 10:42:22;;;;;;;2.55;1.50;;;;;;;8.21;62.83;99748.47;5224076;28;20560;-67
2021/01/20 10:44:54;;;;;;;3.50;1.75;;;;;;;8.25;62.20;99764.69;5224232;28;20083;-68
2021/01/20 10:47:25;;;;;;;3.05;1.67;;;;;;;8.27;61.91;99757.53;5225062;28;20018;-68
2021/01/20 10:49:56;;;;;;;3.75;1.95;;;;;;;8.32;61.21;99755.31;5226237;28;20036;-68
2021/01/20 10:52:28;;;;;;;3.13;1.85;;;;;;;8.29;62.42;99758.22;5223263;28;20029;-68
2021/01/20 10:54:59;;;;;;;3.60;1.90;;;;;;;8.33;61.01;99753.53;5221433;28;20117;-68
2021/01/20 10:57:30;;;;;;;3.78;1.73;;;;;;;8.35;61.54;99746.41;5222005;28;20426;-69
2021/01/20 11:00:02;;;;;;;3.83;2.10;;;;;;;8.36;60.85;99756.69;5221188;28;20135;-68
2021/01/20 11:02:34;;;;;;;6.03;1.87;;;;;;;8.37;61.13;99740.09;5222881;28;20045;-68
2021/01/20 11:05:06;;;;;;;3.53;2.10;;;;;;;8.36;61.25;99737.59;5222329;28;20091;-68
2021/01/20 11:07:37;;;;;;;2.28;1.63;;;;;;;8.35;61.66;99734.16;5223737;28;20033;-68
2021/01/20 11:10:09;;;;;;;3.58;1.95;;;;;;;8.40;60.31;99731.97;5223450;28;20029;-68
2021/01/20 11:12:41;;;;;;;3.80;2.10;;;;;;;8.43;60.05;99721.25;5222068;28;20025;-67
2021/01/20 11:15:12;;;;;;;3.15;1.77;;;;;;;8.42;61.01;99730.06;5219820;28;20560;-68
2021/01/20 11:17:43;;;;;;;2.67;1.70;;;;;;;8.43;60.39;99718.63;5223322;28;20021;-68
2021/01/20 11:20:15;;;;;;;3.40;1.70;;;;;;;8.45;60.31;99727.16;5224801;28;20053;-68
2021/01/20 11:22:47;;;;;;;3.63;2.00;;;;;;;8.46;60.08;99725.38;5218470;28;20029;-68
2021/01/20 11:25:18;;;;;;;4.20;2.05;;;;;;;8.44;60.81;99719.47;5222857;28;20041;-68
2021/01/20 11:27:50;;;;;;;3.22;1.75;;;;;;;8.45;59.71;99723.72;5223727;28;20386;-68
2021/01/20 11:30:21;;;;;;;3.70;1.80;;;;;;;8.46;60.68;99709.72;5223412;28;20433;-68
2021/01/20 11:32:53;;;;;;;3.80;1.90;;;;;;;8.49;59.76;99709.44;5224557;28;20557;-68
2021/01/20 11:35:25;;;;;;;3.88;2.17;;;;;;;8.51;60.70;99712.69;5221963;28;20021;-68
2021/01/20 11:37:56;;;;;;;4.55;1.98;;;;;;;8.53;60.20;99718.59;5222204;28;20057;-68
2021/01/20 11:40:30;;;;;;;3.97;1.83;;;;;;;8.57;59.58;99704.28;5217503;28;20399;-68
2021/01/20 11:43:03;;;;;;;3.65;1.90;;;;;;;8.57;59.04;99712.13;5221930;28;20068;-68
2021/01/20 11:45:36;;;;;;;3.03;1.77;;;;;;;8.59;58.84;99693.69;5208661;28;20254;-68
2021/01/20 11:48:07;;;;;;;4.93;2.60;;;;;;;8.57;58.83;99691.25;5214154;28;21298;-68
2021/01/20 11:50:38;;;;;;;4.32;2.08;;;;;;;8.53;58.22;99688.09;5217841;28;20029;-68
2021/01/20 11:53:10;;;;;;;4.00;2.00;;;;;;;8.56;58.20;99681.78;5218944;28;20478;-68
2021/01/20 11:55:41;;;;;;;5.05;2.00;;;;;;;8.49;59.25;99683.31;5220097;28;20084;-68
2021/01/20 11:58:12;;;;;;;4.18;2.13;;;;;;;8.47;60.33;99688.66;5224259;28;20033;-68
2021/01/20 12:00:44;;;;;;;3.40;1.85;;;;;;;8.50;59.19;99682.34;5216143;28;20302;-68
2021/01/20 12:03:15;;;;;;;3.20;1.80;;;;;;;8.52;59.10;99683.84;5222775;28;20474;-68
2021/01/20 12:05:50;;;;;;;5.07;2.30;;;;;;;8.51;59.26;99670.94;5223882;28;20538;-68